aviador You're here:

WBKS Decoded Metar

SANDAKAN/KALIMAN in _UNIDENTIFIED
Report Time2018-05-20 19:00:00
UTC Time2018-05-20 19:33:00
Flight Rules vfr VFR
WindCalm
Visibility9999 m
Phenomena:N/A
Clouds:Few 016 Hf
Broken 290 Hf
Expected CloudBase > 800 ft AGL from Temp-Dew spread
Ceiling29,000 ft
Temp27°C (ISA +12)
Dew Point25°C (89% RH)
Heat Index30.6°C
QNH1007 hPa
Density Alt2,054 ft
Elevation43 ft
Report Wrong Elevation
Raw Report
METAR WBKS 201900Z 00000KT 9999 FEW016 BKN290 27/25 Q1007=

Extra information for WBKS:More info

Metar Taf Metar & Taf Last 4 Metars F.Rules Stats Wind Profile Meteogram Temp Stats Airport Information Weather charts Add Link Nearby VenuesMetar ALERT Operation Metar Decoded Social comments